sensor_id;sensor_type;location;lat;lon;timestamp;P1;durP1;ratioP1;P2;durP2;ratioP2
12745;SDS011;6437;53.686;10.030;2023-02-26T00:01:30;2.40;;;0.22;;
12745;SDS011;6437;53.686;10.030;2023-02-26T00:04:33;5.90;;;0.55;;
12745;SDS011;6437;53.686;10.030;2023-02-26T00:07:35;5.10;;;0.20;;
12745;SDS011;6437;53.686;10.030;2023-02-26T00:10:36;2.42;;;0.30;;
12745;SDS011;6437;53.686;10.030;2023-02-26T00:13:40;4.05;;;0.40;;
12745;SDS011;6437;53.686;10.030;2023-02-26T00:16:45;7.00;;;0.35;;
12745;SDS011;6437;53.686;10.030;2023-02-26T00:19:51;2.55;;;0.20;;
12745;SDS011;6437;53.686;10.030;2023-02-26T00:22:54;9.10;;;0.30;;
12745;SDS011;6437;53.686;10.030;2023-02-26T00:25:56;8.80;;;0.50;;
12745;SDS011;6437;53.686;10.030;2023-02-26T00:28:58;6.00;;;0.82;;
12745;SDS011;6437;53.686;10.030;2023-02-26T00:32:02;8.93;;;0.87;;
12745;SDS011;6437;53.686;10.030;2023-02-26T00:35:05;4.50;;;0.28;;
12745;SDS011;6437;53.686;10.030;2023-02-26T00:38:08;5.97;;;0.30;;
12745;SDS011;6437;53.686;10.030;2023-02-26T00:41:13;6.03;;;0.20;;
12745;SDS011;6437;53.686;10.030;2023-02-26T00:44:16;9.35;;;0.40;;
12745;SDS011;6437;53.686;10.030;2023-02-26T00:47:23;7.83;;;0.53;;
12745;SDS011;6437;53.686;10.030;2023-02-26T00:50:31;4.80;;;0.30;;
12745;SDS011;6437;53.686;10.030;2023-02-26T00:53:34;3.28;;;0.32;;
12745;SDS011;6437;53.686;10.030;2023-02-26T00:56:40;9.50;;;0.63;;
12745;SDS011;6437;53.686;10.030;2023-02-26T00:59:44;4.80;;;0.20;;
12745;SDS011;6437;53.686;10.030;2023-02-26T01:02:48;4.15;;;0.28;;
12745;SDS011;6437;53.686;10.030;2023-02-26T01:05:50;6.13;;;0.68;;
12745;SDS011;6437;53.686;10.030;2023-02-26T01:08:54;3.50;;;0.20;;
12745;SDS011;6437;53.686;10.030;2023-02-26T01:12:04;9.80;;;0.30;;
12745;SDS011;6437;53.686;10.030;2023-02-26T01:15:08;6.68;;;0.30;;
12745;SDS011;6437;53.686;10.030;2023-02-26T01:18:13;3.13;;;0.40;;
12745;SDS011;6437;53.686;10.030;2023-02-26T01:21:20;7.80;;;0.30;;
12745;SDS011;6437;53.686;10.030;2023-02-26T01:24:28;6.70;;;0.30;;
12745;SDS011;6437;53.686;10.030;2023-02-26T01:27:32;4.63;;;0.13;;
12745;SDS011;6437;53.686;10.030;2023-02-26T01:30:35;4.80;;;0.38;;
12745;SDS011;6437;53.686;10.030;2023-02-26T01:33:39;1.85;;;0.20;;
12745;SDS011;6437;53.686;10.030;2023-02-26T01:36:45;4.32;;;0.40;;
12745;SDS011;6437;53.686;10.030;2023-02-26T01:39:56;4.43;;;0.20;;
12745;SDS011;6437;53.686;10.030;2023-02-26T01:43:09;4.35;;;0.50;;
12745;SDS011;6437;53.686;10.030;2023-02-26T01:46:16;4.50;;;0.20;;
12745;SDS011;6437;53.686;10.030;2023-02-26T01:49:24;8.13;;;0.30;;
12745;SDS011;6437;53.686;10.030;2023-02-26T01:56:08;1.65;;;0.20;;
12745;SDS011;6437;53.686;10.030;2023-02-26T01:59:14;4.90;;;0.30;;
12745;SDS011;6437;53.686;10.030;2023-02-26T02:02:23;11.02;;;0.35;;
12745;SDS011;6437;53.686;10.030;2023-02-26T02:05:27;4.28;;;0.50;;
12745;SDS011;6437;53.686;10.030;2023-02-26T02:08:33;6.63;;;0.20;;
12745;SDS011;6437;53.686;10.030;2023-02-26T02:11:37;7.18;;;0.73;;
12745;SDS011;6437;53.686;10.030;2023-02-26T02:14:52;8.00;;;0.30;;
12745;SDS011;6437;53.686;10.030;2023-02-26T02:18:06;6.32;;;0.60;;
12745;SDS011;6437;53.686;10.030;2023-02-26T02:21:24;3.22;;;0.22;;
12745;SDS011;6437;53.686;10.030;2023-02-26T02:24:46;3.63;;;0.20;;
12745;SDS011;6437;53.686;10.030;2023-02-26T02:27:59;7.22;;;0.20;;
12745;SDS011;6437;53.686;10.030;2023-02-26T02:31:08;3.83;;;0.20;;
12745;SDS011;6437;53.686;10.030;2023-02-26T02:34:15;3.05;;;0.30;;
12745;SDS011;6437;53.686;10.030;2023-02-26T02:37:22;5.38;;;0.20;;
12745;SDS011;6437;53.686;10.030;2023-02-26T02:40:28;1.08;;;0.35;;
12745;SDS011;6437;53.686;10.030;2023-02-26T02:43:33;3.15;;;0.20;;
12745;SDS011;6437;53.686;10.030;2023-02-26T02:46:40;5.43;;;0.43;;
12745;SDS011;6437;53.686;10.030;2023-02-26T02:49:46;3.67;;;0.22;;
12745;SDS011;6437;53.686;10.030;2023-02-26T02:52:51;5.18;;;0.20;;
12745;SDS011;6437;53.686;10.030;2023-02-26T02:55:58;3.97;;;0.20;;
12745;SDS011;6437;53.686;10.030;2023-02-26T02:59:05;2.92;;;0.20;;
12745;SDS011;6437;53.686;10.030;2023-02-26T03:02:17;5.38;;;0.73;;
12745;SDS011;6437;53.686;10.030;2023-02-26T03:05:22;4.57;;;0.20;;
12745;SDS011;6437;53.686;10.030;2023-02-26T03:08:25;6.60;;;0.32;;
12745;SDS011;6437;53.686;10.030;2023-02-26T03:11:30;7.30;;;0.28;;
12745;SDS011;6437;53.686;10.030;2023-02-26T03:14:32;5.22;;;0.20;;
12745;SDS011;6437;53.686;10.030;2023-02-26T03:17:38;4.07;;;0.38;;
12745;SDS011;6437;53.686;10.030;2023-02-26T03:20:50;2.10;;;0.15;;
12745;SDS011;6437;53.686;10.030;2023-02-26T03:23:58;4.43;;;0.50;;
12745;SDS011;6437;53.686;10.030;2023-02-26T03:27:06;3.88;;;0.17;;
12745;SDS011;6437;53.686;10.030;2023-02-26T03:30:15;2.08;;;0.10;;
12745;SDS011;6437;53.686;10.030;2023-02-26T03:33:23;0.55;;;0.10;;
12745;SDS011;6437;53.686;10.030;2023-02-26T03:36:29;5.22;;;0.20;;
12745;SDS011;6437;53.686;10.030;2023-02-26T03:39:36;4.97;;;0.25;;
12745;SDS011;6437;53.686;10.030;2023-02-26T03:42:41;9.82;;;0.20;;
12745;SDS011;6437;53.686;10.030;2023-02-26T03:45:47;5.05;;;0.10;;
12745;SDS011;6437;53.686;10.030;2023-02-26T03:48:53;3.88;;;0.20;;
12745;SDS011;6437;53.686;10.030;2023-02-26T03:51:57;7.43;;;0.25;;
12745;SDS011;6437;53.686;10.030;2023-02-26T03:58:05;5.30;;;0.20;;
12745;SDS011;6437;53.686;10.030;2023-02-26T04:01:08;5.15;;;0.30;;
12745;SDS011;6437;53.686;10.030;2023-02-26T04:04:19;7.07;;;0.20;;
12745;SDS011;6437;53.686;10.030;2023-02-26T04:07:24;4.05;;;0.35;;
12745;SDS011;6437;53.686;10.030;2023-02-26T04:10:29;15.77;;;1.17;;
12745;SDS011;6437;53.686;10.030;2023-02-26T04:13:36;7.15;;;0.30;;
12745;SDS011;6437;53.686;10.030;2023-02-26T04:16:39;9.30;;;1.33;;
12745;SDS011;6437;53.686;10.030;2023-02-26T04:19:43;4.60;;;0.63;;
12745;SDS011;6437;53.686;10.030;2023-02-26T04:22:44;5.95;;;0.38;;
12745;SDS011;6437;53.686;10.030;2023-02-26T04:25:46;8.00;;;0.68;;
12745;SDS011;6437;53.686;10.030;2023-02-26T04:28:48;6.03;;;0.68;;
12745;SDS011;6437;53.686;10.030;2023-02-26T04:31:50;2.58;;;0.35;;
12745;SDS011;6437;53.686;10.030;2023-02-26T04:34:53;4.57;;;0.25;;
12745;SDS011;6437;53.686;10.030;2023-02-26T04:37:55;2.83;;;0.35;;
12745;SDS011;6437;53.686;10.030;2023-02-26T04:40:57;10.43;;;0.55;;
12745;SDS011;6437;53.686;10.030;2023-02-26T04:43:59;6.30;;;0.70;;
12745;SDS011;6437;53.686;10.030;2023-02-26T04:47:01;5.30;;;0.77;;
12745;SDS011;6437;53.686;10.030;2023-02-26T04:50:05;3.63;;;0.35;;
12745;SDS011;6437;53.686;10.030;2023-02-26T04:53:07;5.72;;;0.45;;
12745;SDS011;6437;53.686;10.030;2023-02-26T04:56:09;7.10;;;0.70;;
12745;SDS011;6437;53.686;10.030;2023-02-26T04:59:11;3.70;;;0.30;;
12745;SDS011;6437;53.686;10.030;2023-02-26T05:02:13;2.88;;;0.32;;
12745;SDS011;6437;53.686;10.030;2023-02-26T05:05:16;9.18;;;0.52;;
12745;SDS011;6437;53.686;10.030;2023-02-26T05:11:20;7.13;;;0.20;;
12745;SDS011;6437;53.686;10.030;2023-02-26T05:14:22;11.98;;;0.30;;
12745;SDS011;6437;53.686;10.030;2023-02-26T05:17:23;4.45;;;0.20;;
12745;SDS011;6437;53.686;10.030;2023-02-26T05:20:27;6.20;;;0.63;;
12745;SDS011;6437;53.686;10.030;2023-02-26T05:23:29;7.85;;;0.30;;
12745;SDS011;6437;53.686;10.030;2023-02-26T05:26:31;7.55;;;0.25;;
12745;SDS011;6437;53.686;10.030;2023-02-26T05:29:33;7.68;;;0.20;;
12745;SDS011;6437;53.686;10.030;2023-02-26T05:32:35;3.70;;;0.25;;
12745;SDS011;6437;53.686;10.030;2023-02-26T05:35:38;3.47;;;0.30;;
12745;SDS011;6437;53.686;10.030;2023-02-26T05:38:40;6.97;;;0.20;;
12745;SDS011;6437;53.686;10.030;2023-02-26T05:41:42;10.57;;;0.65;;
12745;SDS011;6437;53.686;10.030;2023-02-26T05:44:45;5.55;;;0.30;;
12745;SDS011;6437;53.686;10.030;2023-02-26T05:47:47;3.38;;;0.20;;
12745;SDS011;6437;53.686;10.030;2023-02-26T05:50:50;3.03;;;0.20;;
12745;SDS011;6437;53.686;10.030;2023-02-26T05:53:52;10.32;;;1.85;;
12745;SDS011;6437;53.686;10.030;2023-02-26T05:56:54;4.15;;;0.20;;
12745;SDS011;6437;53.686;10.030;2023-02-26T05:59:56;1.00;;;0.10;;
12745;SDS011;6437;53.686;10.030;2023-02-26T06:02:58;9.20;;;0.47;;
12745;SDS011;6437;53.686;10.030;2023-02-26T06:06:01;2.30;;;0.13;;
12745;SDS011;6437;53.686;10.030;2023-02-26T06:12:05;4.85;;;0.43;;
12745;SDS011;6437;53.686;10.030;2023-02-26T06:15:07;5.83;;;0.10;;
12745;SDS011;6437;53.686;10.030;2023-02-26T06:18:10;11.13;;;0.97;;
12745;SDS011;6437;53.686;10.030;2023-02-26T06:21:13;8.70;;;0.25;;
12745;SDS011;6437;53.686;10.030;2023-02-26T06:24:15;8.00;;;0.20;;
12745;SDS011;6437;53.686;10.030;2023-02-26T06:27:17;4.90;;;0.40;;
12745;SDS011;6437;53.686;10.030;2023-02-26T06:30:19;7.70;;;0.30;;
12745;SDS011;6437;53.686;10.030;2023-02-26T06:33:22;4.05;;;0.25;;
12745;SDS011;6437;53.686;10.030;2023-02-26T06:36:26;8.02;;;0.40;;
12745;SDS011;6437;53.686;10.030;2023-02-26T06:39:28;7.85;;;1.10;;
12745;SDS011;6437;53.686;10.030;2023-02-26T06:42:30;6.13;;;0.20;;
12745;SDS011;6437;53.686;10.030;2023-02-26T06:45:32;3.42;;;0.30;;
12745;SDS011;6437;53.686;10.030;2023-02-26T06:48:34;8.75;;;0.30;;
12745;SDS011;6437;53.686;10.030;2023-02-26T06:51:37;1.98;;;0.20;;
12745;SDS011;6437;53.686;10.030;2023-02-26T06:54:39;2.70;;;0.20;;
12745;SDS011;6437;53.686;10.030;2023-02-26T06:57:41;5.55;;;0.47;;
12745;SDS011;6437;53.686;10.030;2023-02-26T07:00:42;6.72;;;0.50;;
12745;SDS011;6437;53.686;10.030;2023-02-26T07:03:44;6.07;;;0.20;;
12745;SDS011;6437;53.686;10.030;2023-02-26T07:06:47;7.05;;;0.20;;
12745;SDS011;6437;53.686;10.030;2023-02-26T07:12:51;4.13;;;0.40;;
12745;SDS011;6437;53.686;10.030;2023-02-26T07:15:53;6.22;;;0.22;;
12745;SDS011;6437;53.686;10.030;2023-02-26T07:18:55;7.35;;;0.50;;
12745;SDS011;6437;53.686;10.030;2023-02-26T07:21:58;3.88;;;0.20;;
12745;SDS011;6437;53.686;10.030;2023-02-26T07:28:02;7.13;;;0.40;;
12745;SDS011;6437;53.686;10.030;2023-02-26T07:31:04;6.90;;;0.30;;
12745;SDS011;6437;53.686;10.030;2023-02-26T07:34:06;11.25;;;0.60;;
12745;SDS011;6437;53.686;10.030;2023-02-26T07:37:09;4.53;;;0.38;;
12745;SDS011;6437;53.686;10.030;2023-02-26T07:40:11;9.50;;;0.68;;
12745;SDS011;6437;53.686;10.030;2023-02-26T07:43:13;9.52;;;0.50;;
12745;SDS011;6437;53.686;10.030;2023-02-26T07:46:15;4.78;;;0.50;;
12745;SDS011;6437;53.686;10.030;2023-02-26T07:49:17;4.68;;;0.30;;
12745;SDS011;6437;53.686;10.030;2023-02-26T07:52:20;11.23;;;2.80;;
12745;SDS011;6437;53.686;10.030;2023-02-26T07:55:22;9.30;;;3.13;;
12745;SDS011;6437;53.686;10.030;2023-02-26T07:58:24;6.43;;;0.50;;
12745;SDS011;6437;53.686;10.030;2023-02-26T08:01:26;3.58;;;0.40;;
12745;SDS011;6437;53.686;10.030;2023-02-26T08:04:27;7.47;;;0.57;;
12745;SDS011;6437;53.686;10.030;2023-02-26T08:07:33;6.97;;;0.63;;
12745;SDS011;6437;53.686;10.030;2023-02-26T08:10:36;7.93;;;0.52;;
12745;SDS011;6437;53.686;10.030;2023-02-26T08:13:40;3.35;;;0.20;;
12745;SDS011;6437;53.686;10.030;2023-02-26T08:16:42;9.55;;;0.40;;
12745;SDS011;6437;53.686;10.030;2023-02-26T08:19:44;7.80;;;1.02;;
12745;SDS011;6437;53.686;10.030;2023-02-26T08:22:47;19.80;;;5.47;;
12745;SDS011;6437;53.686;10.030;2023-02-26T08:25:57;8.18;;;1.05;;
12745;SDS011;6437;53.686;10.030;2023-02-26T08:29:00;4.53;;;0.40;;
12745;SDS011;6437;53.686;10.030;2023-02-26T08:32:02;7.63;;;0.47;;
12745;SDS011;6437;53.686;10.030;2023-02-26T08:35:04;3.45;;;0.20;;
12745;SDS011;6437;53.686;10.030;2023-02-26T08:38:09;3.65;;;0.30;;
12745;SDS011;6437;53.686;10.030;2023-02-26T08:41:13;8.93;;;0.35;;
12745;SDS011;6437;53.686;10.030;2023-02-26T08:44:15;9.33;;;0.53;;
12745;SDS011;6437;53.686;10.030;2023-02-26T08:47:17;8.27;;;0.40;;
12745;SDS011;6437;53.686;10.030;2023-02-26T08:50:19;6.22;;;0.20;;
12745;SDS011;6437;53.686;10.030;2023-02-26T08:53:22;5.03;;;0.20;;
12745;SDS011;6437;53.686;10.030;2023-02-26T08:56:24;6.60;;;0.28;;
12745;SDS011;6437;53.686;10.030;2023-02-26T08:59:26;1.27;;;0.13;;
12745;SDS011;6437;53.686;10.030;2023-02-26T09:02:28;2.60;;;0.10;;
12745;SDS011;6437;53.686;10.030;2023-02-26T09:05:30;3.63;;;0.30;;
12745;SDS011;6437;53.686;10.030;2023-02-26T09:08:33;7.63;;;0.20;;
12745;SDS011;6437;53.686;10.030;2023-02-26T09:11:35;3.70;;;0.20;;
12745;SDS011;6437;53.686;10.030;2023-02-26T09:14:37;2.97;;;0.30;;
12745;SDS011;6437;53.686;10.030;2023-02-26T09:17:39;16.65;;;5.63;;
12745;SDS011;6437;53.686;10.030;2023-02-26T09:20:41;7.72;;;1.38;;
12745;SDS011;6437;53.686;10.030;2023-02-26T09:23:44;3.65;;;0.20;;
12745;SDS011;6437;53.686;10.030;2023-02-26T09:26:46;10.85;;;0.70;;
12745;SDS011;6437;53.686;10.030;2023-02-26T09:29:48;4.68;;;0.57;;
12745;SDS011;6437;53.686;10.030;2023-02-26T09:32:50;2.25;;;0.10;;
12745;SDS011;6437;53.686;10.030;2023-02-26T09:35:52;2.00;;;0.30;;
12745;SDS011;6437;53.686;10.030;2023-02-26T09:50:39;5.80;;;0.20;;
12745;SDS011;6437;53.686;10.030;2023-02-26T09:53:44;8.13;;;0.28;;
12745;SDS011;6437;53.686;10.030;2023-02-26T09:56:49;4.85;;;0.20;;
12745;SDS011;6437;53.686;10.030;2023-02-26T09:59:53;7.07;;;0.68;;
12745;SDS011;6437;53.686;10.030;2023-02-26T10:03:00;6.60;;;0.35;;
12745;SDS011;6437;53.686;10.030;2023-02-26T10:06:17;5.57;;;0.28;;
12745;SDS011;6437;53.686;10.030;2023-02-26T10:09:27;3.05;;;0.63;;
12745;SDS011;6437;53.686;10.030;2023-02-26T10:12:38;3.83;;;0.40;;
12745;SDS011;6437;53.686;10.030;2023-02-26T10:15:43;1.85;;;0.73;;
12745;SDS011;6437;53.686;10.030;2023-02-26T10:18:48;4.07;;;0.20;;
12745;SDS011;6437;53.686;10.030;2023-02-26T10:21:53;8.35;;;0.20;;
12745;SDS011;6437;53.686;10.030;2023-02-26T10:24:59;1.67;;;0.20;;
12745;SDS011;6437;53.686;10.030;2023-02-26T10:28:08;4.07;;;0.30;;
12745;SDS011;6437;53.686;10.030;2023-02-26T10:31:31;5.43;;;0.93;;
12745;SDS011;6437;53.686;10.030;2023-02-26T10:34:38;2.13;;;0.20;;
12745;SDS011;6437;53.686;10.030;2023-02-26T10:37:47;4.43;;;0.30;;
12745;SDS011;6437;53.686;10.030;2023-02-26T10:40:54;6.45;;;0.20;;
12745;SDS011;6437;53.686;10.030;2023-02-26T10:44:02;8.85;;;0.30;;
12745;SDS011;6437;53.686;10.030;2023-02-26T10:47:15;4.07;;;0.20;;
12745;SDS011;6437;53.686;10.030;2023-02-26T10:50:24;5.60;;;0.17;;
12745;SDS011;6437;53.686;10.030;2023-02-26T10:53:27;5.85;;;0.30;;
12745;SDS011;6437;53.686;10.030;2023-02-26T10:56:32;3.70;;;0.30;;
12745;SDS011;6437;53.686;10.030;2023-02-26T10:59:34;1.05;;;0.35;;
12745;SDS011;6437;53.686;10.030;2023-02-26T11:02:37;2.92;;;0.22;;
12745;SDS011;6437;53.686;10.030;2023-02-26T11:05:42;3.50;;;0.20;;
12745;SDS011;6437;53.686;10.030;2023-02-26T11:08:45;2.92;;;0.20;;
12745;SDS011;6437;53.686;10.030;2023-02-26T11:11:53;1.85;;;0.30;;
12745;SDS011;6437;53.686;10.030;2023-02-26T11:14:55;2.63;;;0.30;;
12745;SDS011;6437;53.686;10.030;2023-02-26T11:17:57;3.17;;;0.22;;
12745;SDS011;6437;53.686;10.030;2023-02-26T11:21:02;6.47;;;0.40;;
12745;SDS011;6437;53.686;10.030;2023-02-26T11:24:06;12.60;;;1.10;;
12745;SDS011;6437;53.686;10.030;2023-02-26T11:27:15;4.65;;;0.57;;
12745;SDS011;6437;53.686;10.030;2023-02-26T11:30:24;5.85;;;0.73;;
12745;SDS011;6437;53.686;10.030;2023-02-26T11:33:28;7.20;;;0.57;;
12745;SDS011;6437;53.686;10.030;2023-02-26T11:36:37;4.50;;;0.30;;
12745;SDS011;6437;53.686;10.030;2023-02-26T11:39:41;5.97;;;0.40;;
12745;SDS011;6437;53.686;10.030;2023-02-26T11:42:44;3.38;;;0.55;;
12745;SDS011;6437;53.686;10.030;2023-02-26T11:45:52;10.05;;;0.95;;
12745;SDS011;6437;53.686;10.030;2023-02-26T11:48:57;2.97;;;0.38;;
12745;SDS011;6437;53.686;10.030;2023-02-26T11:52:13;5.50;;;0.40;;
12745;SDS011;6437;53.686;10.030;2023-02-26T11:59:18;4.68;;;0.50;;
12745;SDS011;6437;53.686;10.030;2023-02-26T12:02:22;6.93;;;0.60;;
12745;SDS011;6437;53.686;10.030;2023-02-26T12:05:26;8.60;;;0.70;;
12745;SDS011;6437;53.686;10.030;2023-02-26T12:08:31;6.13;;;0.85;;
12745;SDS011;6437;53.686;10.030;2023-02-26T12:11:50;11.30;;;0.73;;
12745;SDS011;6437;53.686;10.030;2023-02-26T12:15:06;5.50;;;0.45;;
12745;SDS011;6437;53.686;10.030;2023-02-26T12:18:20;4.13;;;0.40;;
12745;SDS011;6437;53.686;10.030;2023-02-26T12:21:46;2.92;;;0.30;;
12745;SDS011;6437;53.686;10.030;2023-02-26T12:25:01;9.32;;;0.32;;
12745;SDS011;6437;53.686;10.030;2023-02-26T12:44:19;7.50;;;0.32;;
12745;SDS011;6437;53.686;10.030;2023-02-26T12:47:36;6.22;;;0.40;;
12745;SDS011;6437;53.686;10.030;2023-02-26T12:50:53;3.40;;;0.28;;
12745;SDS011;6437;53.686;10.030;2023-02-26T12:54:17;4.68;;;0.32;;
12745;SDS011;6437;53.686;10.030;2023-02-26T12:57:39;6.57;;;0.20;;
12745;SDS011;6437;53.686;10.030;2023-02-26T13:00:54;7.55;;;0.50;;
12745;SDS011;6437;53.686;10.030;2023-02-26T13:07:50;6.82;;;0.30;;
12745;SDS011;6437;53.686;10.030;2023-02-26T13:11:02;8.43;;;0.40;;
12745;SDS011;6437;53.686;10.030;2023-02-26T13:14:17;7.22;;;0.50;;
12745;SDS011;6437;53.686;10.030;2023-02-26T13:17:30;2.97;;;0.30;;
12745;SDS011;6437;53.686;10.030;2023-02-26T13:20:43;4.85;;;0.45;;
12745;SDS011;6437;53.686;10.030;2023-02-26T13:23:53;5.88;;;0.30;;
12745;SDS011;6437;53.686;10.030;2023-02-26T13:26:57;5.03;;;0.40;;
12745;SDS011;6437;53.686;10.030;2023-02-26T13:30:05;8.73;;;0.40;;
12745;SDS011;6437;53.686;10.030;2023-02-26T13:33:20;5.53;;;0.30;;
12745;SDS011;6437;53.686;10.030;2023-02-26T13:36:25;9.07;;;0.22;;
12745;SDS011;6437;53.686;10.030;2023-02-26T13:39:32;2.45;;;0.30;;
12745;SDS011;6437;53.686;10.030;2023-02-26T13:42:44;12.65;;;0.47;;
12745;SDS011;6437;53.686;10.030;2023-02-26T13:45:51;10.40;;;1.00;;
12745;SDS011;6437;53.686;10.030;2023-02-26T13:49:07;6.43;;;0.65;;
12745;SDS011;6437;53.686;10.030;2023-02-26T13:52:23;1.55;;;0.20;;
12745;SDS011;6437;53.686;10.030;2023-02-26T13:55:37;5.45;;;0.30;;
12745;SDS011;6437;53.686;10.030;2023-02-26T13:58:43;3.65;;;0.50;;
12745;SDS011;6437;53.686;10.030;2023-02-26T14:01:52;6.22;;;0.30;;
12745;SDS011;6437;53.686;10.030;2023-02-26T14:04:57;4.68;;;0.20;;
12745;SDS011;6437;53.686;10.030;2023-02-26T14:08:21;7.22;;;0.30;;
12745;SDS011;6437;53.686;10.030;2023-02-26T14:11:57;2.00;;;0.40;;
12745;SDS011;6437;53.686;10.030;2023-02-26T14:18:29;7.28;;;1.40;;
12745;SDS011;6437;53.686;10.030;2023-02-26T14:21:39;8.98;;;0.32;;
12745;SDS011;6437;53.686;10.030;2023-02-26T14:24:51;2.22;;;0.20;;
12745;SDS011;6437;53.686;10.030;2023-02-26T14:31:20;4.53;;;0.30;;
12745;SDS011;6437;53.686;10.030;2023-02-26T14:34:25;4.47;;;0.30;;
12745;SDS011;6437;53.686;10.030;2023-02-26T14:37:33;6.13;;;0.30;;
12745;SDS011;6437;53.686;10.030;2023-02-26T14:40:39;3.40;;;0.25;;
12745;SDS011;6437;53.686;10.030;2023-02-26T14:43:48;5.03;;;0.50;;
12745;SDS011;6437;53.686;10.030;2023-02-26T14:46:55;5.32;;;0.30;;
12745;SDS011;6437;53.686;10.030;2023-02-26T14:49:58;14.00;;;0.57;;
12745;SDS011;6437;53.686;10.030;2023-02-26T14:53:09;3.85;;;0.30;;
12745;SDS011;6437;53.686;10.030;2023-02-26T14:56:26;6.95;;;0.38;;
12745;SDS011;6437;53.686;10.030;2023-02-26T14:59:42;8.80;;;0.60;;
12745;SDS011;6437;53.686;10.030;2023-02-26T15:03:18;5.70;;;0.40;;
12745;SDS011;6437;53.686;10.030;2023-02-26T15:06:33;5.32;;;0.40;;
12745;SDS011;6437;53.686;10.030;2023-02-26T15:10:09;4.28;;;0.40;;
12745;SDS011;6437;53.686;10.030;2023-02-26T15:13:28;11.35;;;0.40;;
12745;SDS011;6437;53.686;10.030;2023-02-26T15:16:49;3.97;;;0.30;;
12745;SDS011;6437;53.686;10.030;2023-02-26T15:20:08;4.13;;;0.38;;
12745;SDS011;6437;53.686;10.030;2023-02-26T15:23:28;8.90;;;0.60;;
12745;SDS011;6437;53.686;10.030;2023-02-26T15:26:44;9.13;;;0.43;;
12745;SDS011;6437;53.686;10.030;2023-02-26T15:29:48;6.55;;;0.40;;
12745;SDS011;6437;53.686;10.030;2023-02-26T15:32:55;6.80;;;0.55;;
12745;SDS011;6437;53.686;10.030;2023-02-26T15:35:58;6.65;;;0.32;;
12745;SDS011;6437;53.686;10.030;2023-02-26T15:39:01;2.72;;;0.20;;
12745;SDS011;6437;53.686;10.030;2023-02-26T15:42:09;9.45;;;0.60;;
12745;SDS011;6437;53.686;10.030;2023-02-26T15:45:12;5.20;;;0.40;;
12745;SDS011;6437;53.686;10.030;2023-02-26T15:48:20;6.13;;;0.40;;
12745;SDS011;6437;53.686;10.030;2023-02-26T15:51:27;5.78;;;0.30;;
12745;SDS011;6437;53.686;10.030;2023-02-26T15:54:32;8.55;;;1.27;;
12745;SDS011;6437;53.686;10.030;2023-02-26T15:57:38;5.82;;;0.30;;
12745;SDS011;6437;53.686;10.030;2023-02-26T16:00:40;11.45;;;0.73;;
12745;SDS011;6437;53.686;10.030;2023-02-26T16:03:42;7.60;;;0.40;;
12745;SDS011;6437;53.686;10.030;2023-02-26T16:06:45;5.68;;;0.40;;
12745;SDS011;6437;53.686;10.030;2023-02-26T16:09:49;3.08;;;0.20;;
12745;SDS011;6437;53.686;10.030;2023-02-26T16:12:54;8.35;;;0.30;;
12745;SDS011;6437;53.686;10.030;2023-02-26T16:16:00;2.72;;;0.52;;
12745;SDS011;6437;53.686;10.030;2023-02-26T16:19:04;19.85;;;0.70;;
12745;SDS011;6437;53.686;10.030;2023-02-26T16:22:08;4.47;;;0.28;;
12745;SDS011;6437;53.686;10.030;2023-02-26T16:25:18;4.15;;;0.57;;
12745;SDS011;6437;53.686;10.030;2023-02-26T16:28:27;7.97;;;0.30;;
12745;SDS011;6437;53.686;10.030;2023-02-26T16:31:31;1.95;;;0.30;;
12745;SDS011;6437;53.686;10.030;2023-02-26T16:34:39;3.17;;;0.68;;
12745;SDS011;6437;53.686;10.030;2023-02-26T16:37:42;3.75;;;0.82;;
12745;SDS011;6437;53.686;10.030;2023-02-26T16:40:53;6.38;;;0.80;;
12745;SDS011;6437;53.686;10.030;2023-02-26T16:44:01;7.80;;;1.27;;
12745;SDS011;6437;53.686;10.030;2023-02-26T16:47:04;13.80;;;0.93;;
12745;SDS011;6437;53.686;10.030;2023-02-26T16:50:12;4.10;;;0.65;;
12745;SDS011;6437;53.686;10.030;2023-02-26T16:53:18;8.00;;;0.73;;
12745;SDS011;6437;53.686;10.030;2023-02-26T16:56:21;3.08;;;0.38;;
12745;SDS011;6437;53.686;10.030;2023-02-26T16:59:29;6.13;;;0.55;;
12745;SDS011;6437;53.686;10.030;2023-02-26T17:02:33;2.83;;;0.40;;
12745;SDS011;6437;53.686;10.030;2023-02-26T17:05:38;5.20;;;0.40;;
12745;SDS011;6437;53.686;10.030;2023-02-26T17:08:45;4.68;;;0.40;;
12745;SDS011;6437;53.686;10.030;2023-02-26T17:11:49;6.50;;;0.93;;
12745;SDS011;6437;53.686;10.030;2023-02-26T17:14:53;6.60;;;0.75;;
12745;SDS011;6437;53.686;10.030;2023-02-26T17:17:57;13.43;;;3.55;;
12745;SDS011;6437;53.686;10.030;2023-02-26T17:20:58;11.93;;;1.63;;
12745;SDS011;6437;53.686;10.030;2023-02-26T17:24:03;17.75;;;1.85;;
12745;SDS011;6437;53.686;10.030;2023-02-26T17:27:05;5.38;;;1.10;;
12745;SDS011;6437;53.686;10.030;2023-02-26T17:30:12;7.10;;;1.30;;
12745;SDS011;6437;53.686;10.030;2023-02-26T17:33:17;5.53;;;1.00;;
12745;SDS011;6437;53.686;10.030;2023-02-26T17:36:19;10.73;;;0.73;;
12745;SDS011;6437;53.686;10.030;2023-02-26T17:39:21;12.55;;;1.60;;
12745;SDS011;6437;53.686;10.030;2023-02-26T17:42:23;13.57;;;1.65;;
12745;SDS011;6437;53.686;10.030;2023-02-26T17:45:26;7.45;;;1.13;;
12745;SDS011;6437;53.686;10.030;2023-02-26T17:48:28;4.22;;;0.82;;
12745;SDS011;6437;53.686;10.030;2023-02-26T17:51:30;3.55;;;0.32;;
12745;SDS011;6437;53.686;10.030;2023-02-26T17:54:32;14.25;;;0.40;;
12745;SDS011;6437;53.686;10.030;2023-02-26T17:57:33;11.77;;;0.70;;
12745;SDS011;6437;53.686;10.030;2023-02-26T18:00:36;11.57;;;0.85;;
12745;SDS011;6437;53.686;10.030;2023-02-26T18:03:42;10.68;;;1.48;;
12745;SDS011;6437;53.686;10.030;2023-02-26T18:06:44;18.92;;;4.35;;
12745;SDS011;6437;53.686;10.030;2023-02-26T18:09:46;16.27;;;5.07;;
12745;SDS011;6437;53.686;10.030;2023-02-26T18:12:48;19.08;;;5.57;;
12745;SDS011;6437;53.686;10.030;2023-02-26T18:15:52;21.27;;;8.05;;
12745;SDS011;6437;53.686;10.030;2023-02-26T18:18:55;16.55;;;5.20;;
12745;SDS011;6437;53.686;10.030;2023-02-26T18:21:57;9.52;;;3.95;;
12745;SDS011;6437;53.686;10.030;2023-02-26T18:24:59;6.47;;;1.88;;
12745;SDS011;6437;53.686;10.030;2023-02-26T18:28:01;9.80;;;2.13;;
12745;SDS011;6437;53.686;10.030;2023-02-26T18:31:06;7.65;;;1.40;;
12745;SDS011;6437;53.686;10.030;2023-02-26T18:34:08;8.32;;;1.23;;
12745;SDS011;6437;53.686;10.030;2023-02-26T18:37:12;3.28;;;0.77;;
12745;SDS011;6437;53.686;10.030;2023-02-26T18:40:17;6.45;;;1.35;;
12745;SDS011;6437;53.686;10.030;2023-02-26T18:43:21;16.35;;;2.90;;
12745;SDS011;6437;53.686;10.030;2023-02-26T18:46:24;10.18;;;2.08;;
12745;SDS011;6437;53.686;10.030;2023-02-26T18:49:28;30.25;;;7.80;;
12745;SDS011;6437;53.686;10.030;2023-02-26T18:52:30;33.67;;;11.07;;
12745;SDS011;6437;53.686;10.030;2023-02-26T18:55:32;29.02;;;10.20;;
12745;SDS011;6437;53.686;10.030;2023-02-26T18:58:34;27.00;;;9.88;;
12745;SDS011;6437;53.686;10.030;2023-02-26T19:01:37;32.83;;;9.85;;
12745;SDS011;6437;53.686;10.030;2023-02-26T19:04:39;19.13;;;8.80;;
12745;SDS011;6437;53.686;10.030;2023-02-26T19:07:41;27.23;;;9.80;;
12745;SDS011;6437;53.686;10.030;2023-02-26T19:10:43;40.03;;;13.68;;
12745;SDS011;6437;53.686;10.030;2023-02-26T19:13:47;33.78;;;13.57;;
12745;SDS011;6437;53.686;10.030;2023-02-26T19:16:50;32.55;;;14.10;;
12745;SDS011;6437;53.686;10.030;2023-02-26T19:19:52;31.25;;;14.68;;
12745;SDS011;6437;53.686;10.030;2023-02-26T19:22:54;31.35;;;11.30;;
12745;SDS011;6437;53.686;10.030;2023-02-26T19:25:56;25.02;;;9.10;;
12745;SDS011;6437;53.686;10.030;2023-02-26T19:28:57;23.85;;;9.43;;
12745;SDS011;6437;53.686;10.030;2023-02-26T19:32:01;21.42;;;7.63;;
12745;SDS011;6437;53.686;10.030;2023-02-26T19:35:04;20.05;;;6.53;;
12745;SDS011;6437;53.686;10.030;2023-02-26T19:38:07;14.77;;;5.43;;